createdAt,value
2023-03-26T00:03:21.332Z,15.70
2023-03-26T00:07:48.101Z,3.65
2023-03-26T00:12:15.825Z,23.10
2023-03-26T00:16:44.138Z,15.20
2023-03-26T00:21:09.930Z,2.10
2023-03-26T00:25:35.249Z,1.83
2023-03-26T00:30:01.103Z,6.18
2023-03-26T00:34:28.897Z,4.63
2023-03-26T00:38:55.556Z,2.47
2023-03-26T00:43:21.788Z,4.20
2023-03-26T00:47:46.852Z,2.53
2023-03-26T00:52:14.459Z,6.70
2023-03-26T00:56:40.163Z,1.75
2023-03-26T01:01:08.341Z,2.50
2023-03-26T01:05:53.020Z,2.13
2023-03-26T01:10:22.761Z,2.13
2023-03-26T01:14:50.610Z,2.85
2023-03-26T01:19:24.878Z,12.13
2023-03-26T01:24:00.257Z,12.10
2023-03-26T01:28:29.944Z,17.85
2023-03-26T01:33:07.894Z,2.33
2023-03-26T01:37:43.633Z,4.63
2023-03-26T01:42:16.630Z,3.58
2023-03-26T01:46:44.418Z,3.95
2023-03-26T01:51:11.801Z,2.40
2023-03-26T01:55:50.737Z,1.75
2023-03-26T02:00:24.493Z,1.98
2023-03-26T02:04:54.594Z,1.70
2023-03-26T02:09:26.676Z,2.05
2023-03-26T02:13:53.294Z,2.17
2023-03-26T02:18:24.381Z,1.60
2023-03-26T02:22:49.730Z,2.58
2023-03-26T02:27:18.573Z,1.38
2023-03-26T02:31:44.361Z,2.63
2023-03-26T02:36:14.302Z,1.77
2023-03-26T02:40:41.459Z,2.53
2023-03-26T02:45:09.137Z,2.42
2023-03-26T02:49:52.955Z,3.47
2023-03-26T02:54:37.185Z,2.08
2023-03-26T02:59:22.335Z,1.67
2023-03-26T03:04:01.702Z,3.97
2023-03-26T03:08:34.352Z,2.60
2023-03-26T03:13:17.074Z,2.42
2023-03-26T03:17:42.066Z,2.55
2023-03-26T03:22:07.728Z,1.70
2023-03-26T03:26:34.546Z,5.70
2023-03-26T03:31:18.878Z,2.58
2023-03-26T03:35:46.107Z,3.47
2023-03-26T03:40:12.365Z,4.20
2023-03-26T03:44:37.995Z,3.53
2023-03-26T03:49:12.619Z,2.13
2023-03-26T03:53:40.763Z,2.97
2023-03-26T03:58:09.570Z,1.95
2023-03-26T04:02:35.764Z,2.33
2023-03-26T04:07:05.506Z,5.20
2023-03-26T04:11:58.992Z,12.68
2023-03-26T04:16:44.200Z,2.50
2023-03-26T04:21:09.215Z,3.17
2023-03-26T04:25:36.827Z,9.07
2023-03-26T04:30:12.784Z,5.97
2023-03-26T04:34:37.307Z,4.03
2023-03-26T04:39:13.492Z,2.35
2023-03-26T04:43:57.872Z,5.03
2023-03-26T04:48:34.736Z,2.38
2023-03-26T04:52:59.526Z,3.57
2023-03-26T04:57:47.194Z,1.92
2023-03-26T05:02:34.701Z,3.17
2023-03-26T05:07:01.493Z,1.33
2023-03-26T05:11:38.462Z,2.55
2023-03-26T05:16:04.786Z,1.77
2023-03-26T05:20:41.284Z,2.57
2023-03-26T05:25:10.547Z,2.60
2023-03-26T05:29:37.172Z,5.63
2023-03-26T05:34:03.770Z,2.25
2023-03-26T05:38:31.140Z,2.37
2023-03-26T05:42:58.093Z,1.90
2023-03-26T05:47:36.592Z,2.20
2023-03-26T05:52:02.498Z,3.23
2023-03-26T05:56:57.028Z,2.00
2023-03-26T06:01:43.188Z,3.45
2023-03-26T06:06:16.829Z,4.37
2023-03-26T06:10:52.004Z,2.42
2023-03-26T06:15:18.848Z,2.88
2023-03-26T06:19:58.708Z,2.45
2023-03-26T06:24:35.505Z,3.20
2023-03-26T06:29:21.156Z,3.70
2023-03-26T06:34:08.898Z,3.63
2023-03-26T06:38:35.415Z,3.90
2023-03-26T06:43:07.990Z,9.35
2023-03-26T06:48:10.830Z,3.85
2023-03-26T06:52:58.922Z,4.27
2023-03-26T06:57:55.220Z,3.30
2023-03-26T07:02:47.789Z,4.28
2023-03-26T07:07:32.958Z,2.95
2023-03-26T07:12:24.628Z,1.97
2023-03-26T07:16:49.156Z,5.70
2023-03-26T07:21:38.309Z,5.50
2023-03-26T07:26:32.680Z,3.90
2023-03-26T07:31:28.289Z,2.08
2023-03-26T07:36:25.815Z,7.53
2023-03-26T07:41:19.194Z,4.33
2023-03-26T07:46:36.692Z,4.88
2023-03-26T07:51:36.538Z,5.32
2023-03-26T07:56:21.484Z,2.88
2023-03-26T08:01:17.904Z,6.20
2023-03-26T08:05:56.783Z,8.57
2023-03-26T08:11:03.394Z,7.78
2023-03-26T08:15:44.906Z,6.57
2023-03-26T08:20:21.237Z,8.70
2023-03-26T08:25:02.013Z,4.60
2023-03-26T08:29:34.544Z,7.67
2023-03-26T08:33:59.474Z,4.68
2023-03-26T08:38:28.083Z,6.35
2023-03-26T08:43:21.504Z,8.15
2023-03-26T08:48:29.350Z,4.57
2023-03-26T08:53:40.046Z,5.55
2023-03-26T08:58:52.265Z,3.63
2023-03-26T09:03:48.249Z,5.77
2023-03-26T09:09:05.275Z,11.90
2023-03-26T09:14:06.982Z,6.28
2023-03-26T09:19:12.584Z,9.07
2023-03-26T09:24:10.461Z,4.18
2023-03-26T09:29:17.048Z,7.35
2023-03-26T09:34:14.243Z,7.35
2023-03-26T09:38:49.142Z,7.63
2023-03-26T09:43:54.160Z,8.20
2023-03-26T09:48:36.330Z,8.85
2023-03-26T09:53:14.245Z,7.93
2023-03-26T09:58:01.277Z,6.80
2023-03-26T10:02:58.671Z,9.20
2023-03-26T10:07:57.401Z,7.83
2023-03-26T10:12:37.101Z,7.55
2023-03-26T10:17:11.612Z,7.22
2023-03-26T10:21:44.561Z,8.77
2023-03-26T10:26:40.754Z,6.40
2023-03-26T10:31:36.985Z,5.95
2023-03-26T10:36:34.135Z,9.02
2023-03-26T10:41:12.615Z,8.33
2023-03-26T10:45:55.923Z,10.48
2023-03-26T10:50:56.684Z,9.18
2023-03-26T10:55:30.280Z,19.23
2023-03-26T11:00:00.627Z,182.85
2023-03-26T11:04:40.019Z,38.85
2023-03-26T11:09:22.918Z,18.27
2023-03-26T11:13:56.540Z,7.27
2023-03-26T11:18:31.692Z,11.40
2023-03-26T11:23:10.125Z,6.82
2023-03-26T11:27:57.233Z,7.30
2023-03-26T11:32:26.221Z,9.30
2023-03-26T11:36:59.660Z,12.95
2023-03-26T11:41:27.366Z,9.73
2023-03-26T11:46:13.256Z,27.42
2023-03-26T11:50:49.133Z,73.45
2023-03-26T11:55:15.934Z,19.52
2023-03-26T11:59:56.605Z,29.90
2023-03-26T12:04:37.198Z,10.23
2023-03-26T12:09:05.161Z,15.88
2023-03-26T12:13:35.717Z,37.83
2023-03-26T12:18:25.054Z,26.30
2023-03-26T12:22:54.785Z,75.35
2023-03-26T12:27:29.299Z,9.97
2023-03-26T12:32:04.607Z,23.60
2023-03-26T12:36:37.195Z,39.70
2023-03-26T12:44:44.260Z,51.92
2023-03-26T12:47:54.443Z,28.57
2023-03-26T12:50:59.789Z,122.75
2023-03-26T12:55:42.348Z,159.95
2023-03-26T13:00:40.846Z,91.53
2023-03-26T13:05:35.993Z,169.95
2023-03-26T13:10:35.069Z,166.02
2023-03-26T13:15:22.053Z,65.27
2023-03-26T13:19:57.715Z,207.27
2023-03-26T13:24:42.458Z,130.05
2023-03-26T13:29:09.489Z,66.40
2023-03-26T13:33:50.714Z,30.53
2023-03-26T13:38:26.219Z,21.15
2023-03-26T13:42:56.961Z,18.27
2023-03-26T13:47:22.342Z,14.83
2023-03-26T13:51:55.365Z,21.52
2023-03-26T13:56:25.068Z,12.13
2023-03-26T14:00:57.407Z,6.80
2023-03-26T14:05:22.529Z,8.38
2023-03-26T14:09:51.661Z,10.00
2023-03-26T14:14:20.131Z,8.80
2023-03-26T14:18:49.899Z,8.07
2023-03-26T14:23:36.949Z,9.70
2023-03-26T14:28:20.093Z,6.70
2023-03-26T14:33:06.169Z,5.20
2023-03-26T14:37:55.629Z,7.80
2023-03-26T14:42:26.535Z,4.72
2023-03-26T14:47:17.515Z,5.77
2023-03-26T14:52:12.490Z,5.97
2023-03-26T14:57:01.192Z,10.85
2023-03-26T15:01:28.920Z,4.47
2023-03-26T15:06:24.081Z,4.87
2023-03-26T15:11:02.905Z,6.85
2023-03-26T15:16:00.363Z,17.65
2023-03-26T15:20:50.594Z,29.00
2023-03-26T15:25:35.893Z,39.75
2023-03-26T15:30:40.525Z,28.48
2023-03-26T15:35:44.530Z,6.17
2023-03-26T15:40:29.353Z,6.22
2023-03-26T15:45:08.311Z,6.32
2023-03-26T15:49:43.061Z,6.70
2023-03-26T15:54:10.217Z,6.67
2023-03-26T15:58:40.106Z,8.25
2023-03-26T16:03:22.978Z,8.32
2023-03-26T16:08:03.548Z,18.60
2023-03-26T16:12:39.637Z,13.13
2023-03-26T16:17:03.960Z,11.40
2023-03-26T16:21:57.614Z,20.50
2023-03-26T16:26:32.018Z,40.58
2023-03-26T16:31:38.869Z,36.47
2023-03-26T16:36:19.498Z,43.50
2023-03-26T16:41:03.264Z,17.07
2023-03-26T16:45:30.810Z,14.07
2023-03-26T16:50:08.116Z,22.02
2023-03-26T16:54:46.611Z,20.27
2023-03-26T16:59:18.398Z,128.10
2023-03-26T17:03:46.178Z,160.68
2023-03-26T17:08:14.331Z,194.53
2023-03-26T17:12:46.072Z,310.33
2023-03-26T17:17:25.923Z,326.40
2023-03-26T17:22:07.903Z,367.25
2023-03-26T17:26:35.214Z,397.30
2023-03-26T17:31:09.365Z,304.00
2023-03-26T17:35:43.999Z,317.02
2023-03-26T17:40:52.029Z,412.37
2023-03-26T17:45:18.592Z,417.70
2023-03-26T17:49:49.685Z,40.95
2023-03-26T17:54:26.477Z,15.77
2023-03-26T17:58:50.295Z,9.30
2023-03-26T18:03:19.518Z,11.80
2023-03-26T18:08:28.429Z,107.28
2023-03-26T18:13:07.468Z,83.73
2023-03-26T18:17:28.895Z,97.68
2023-03-26T18:21:52.139Z,97.25
2023-03-26T18:26:18.457Z,60.70
2023-03-26T18:30:49.115Z,61.63
2023-03-26T18:35:21.087Z,50.53
2023-03-26T18:39:40.399Z,85.07
2023-03-26T18:44:07.972Z,59.50
2023-03-26T18:48:31.087Z,74.68
2023-03-26T18:52:52.043Z,55.00
2023-03-26T18:57:15.389Z,78.60
2023-03-26T19:01:38.781Z,44.88
2023-03-26T19:06:04.725Z,15.55
2023-03-26T19:10:28.507Z,46.07
2023-03-26T19:14:58.091Z,23.65
2023-03-26T19:19:23.648Z,33.58
2023-03-26T19:23:45.650Z,87.27
2023-03-26T19:28:14.308Z,33.08
2023-03-26T19:32:34.963Z,85.38
2023-03-26T19:36:59.539Z,39.30
2023-03-26T19:41:23.381Z,46.17
2023-03-26T19:45:59.962Z,31.42
2023-03-26T19:50:26.950Z,45.85
2023-03-26T19:54:59.908Z,20.27
2023-03-26T19:59:22.600Z,16.15
2023-03-26T20:03:44.496Z,26.08
2023-03-26T20:08:17.456Z,10.00
2023-03-26T20:12:39.046Z,17.70
2023-03-26T20:16:56.805Z,19.35
2023-03-26T20:21:15.225Z,10.60
2023-03-26T20:25:35.878Z,11.57
2023-03-26T20:29:57.784Z,13.85
2023-03-26T20:34:18.672Z,16.17
2023-03-26T20:38:39.419Z,15.37
2023-03-26T20:42:57.214Z,15.85
2023-03-26T20:47:16.472Z,12.48
2023-03-26T20:51:38.110Z,12.13
2023-03-26T20:55:57.555Z,11.15
2023-03-26T21:00:19.303Z,12.85
2023-03-26T21:04:37.949Z,12.88
2023-03-26T21:09:17.623Z,11.77
2023-03-26T21:14:09.392Z,13.63
2023-03-26T21:18:30.159Z,12.95
2023-03-26T21:27:33.790Z,16.45
2023-03-26T21:31:53.995Z,15.00
2023-03-26T21:36:13.403Z,15.80
2023-03-26T21:40:35.472Z,15.05
2023-03-26T21:44:54.672Z,12.25
2023-03-26T21:49:13.488Z,15.05
2023-03-26T21:53:35.822Z,15.90
2023-03-26T21:58:23.115Z,12.85
2023-03-26T22:02:57.306Z,15.88
2023-03-26T22:07:20.904Z,9.57
2023-03-26T22:11:37.903Z,11.27
2023-03-26T22:15:57.662Z,11.70
2023-03-26T22:20:20.152Z,10.27
2023-03-26T22:24:40.654Z,9.82
2023-03-26T22:29:02.278Z,10.50
2023-03-26T22:33:22.606Z,9.43
2023-03-26T22:37:42.080Z,8.67
2023-03-26T22:42:02.152Z,8.50
2023-03-26T22:46:21.217Z,11.70
2023-03-26T22:50:41.149Z,7.03
2023-03-26T22:55:00.041Z,12.13
2023-03-26T22:59:18.735Z,12.23
2023-03-26T23:03:36.926Z,8.80
2023-03-26T23:07:56.005Z,12.95
2023-03-26T23:12:15.656Z,10.40
2023-03-26T23:16:33.330Z,9.63
2023-03-26T23:20:52.897Z,14.40
2023-03-26T23:25:14.216Z,9.43
2023-03-26T23:29:34.385Z,11.35
2023-03-26T23:33:51.779Z,15.97
2023-03-26T23:38:13.005Z,16.90
2023-03-26T23:42:34.562Z,10.68
2023-03-26T23:46:57.897Z,9.03
2023-03-26T23:51:18.340Z,8.65
2023-03-26T23:55:38.018Z,9.45
2023-03-26T23:59:57.293Z,10.05
